.
WxDataArchive / Data Records for 2016-06-18
2016-06-17 June 2016 2016-06-19

Data Records for Saturday, 18 June 2016

Time	Temp	Chill	HIndex	Humid	Dewpt	 Wind 	HiWind	WindDir	Rain 	Barom
-----	----	-----	------	-----	-----	------	------	-------	-----	-----
00:00	63.5	63.5	63.5	63	50.7	0	0	---	0.00	30.047 
00:05	63.2	63.2	63.2	64	50.8	0	0	---	0.00	30.047 
00:10	63.2	63.2	63.2	65	51.2	0	0	---	0.00	30.047 
00:15	63.1	63.1	63.1	65	51.1	0	0	---	0.00	30.058 
00:20	62.9	62.9	62.9	65	50.9	0	0	---	0.00	30.058 
00:25	62.7	62.7	62.7	66	51.2	0	0	---	0.00	30.058 
00:30	62.6	62.6	62.6	66	51.1	0	0	---	0.00	30.064 
00:35	62.4	62.4	62.4	67	51.3	0	0	---	0.00	30.064 
00:40	62.3	62.3	62.3	66	50.8	0	0	---	0.00	30.064 
00:45	62.1	62.1	62.1	67	51.0	0	0	---	0.00	30.071 
00:50	62.0	62.0	62.0	68	51.3	0	0	---	0.00	30.071 
00:55	61.8	61.8	61.8	69	51.5	0	0	---	0.00	30.071 
01:00	61.6	61.6	61.6	69	51.3	0	0	---	0.00	30.076 
01:05	61.5	61.5	61.5	69	51.2	0	0	---	0.00	30.076 
01:10	61.3	61.3	61.3	70	51.4	0	0	---	0.00	30.076 
01:15	61.2	61.2	61.2	71	51.7	0	0	---	0.00	30.080 
01:20	61.0	61.0	61.0	71	51.5	0	0	---	0.00	30.080 
01:25	60.9	60.9	60.9	72	51.8	0	0	---	0.00	30.080 
01:30	60.7	60.7	60.7	73	52.0	0	0	---	0.00	30.077 
01:35	60.5	60.5	60.5	73	51.8	0	0	---	0.00	30.077 
01:40	60.4	60.4	60.4	74	52.1	0	0	---	0.00	30.077 
01:45	60.2	60.2	60.2	74	51.9	0	0	---	0.00	30.075 
01:50	60.1	60.1	60.1	74	51.8	0	0	---	0.00	30.075 
01:55	59.9	59.9	59.9	75	52.0	0	0	---	0.00	30.075 
02:00	59.9	59.9	59.9	75	52.0	0	0	---	0.00	30.075 
02:05	59.9	59.9	59.9	76	52.3	0	0	---	0.00	30.075 
02:10	59.8	59.8	59.8	76	52.2	0	0	---	0.00	30.075 
02:15	59.8	59.8	59.8	76	52.2	0	0	---	0.00	30.074 
02:20	59.6	59.6	59.6	77	52.4	0	0	---	0.00	30.074 
02:25	59.5	59.5	59.5	77	52.3	0	0	---	0.00	30.074 
02:30	59.5	59.5	59.5	77	52.3	0	0	---	0.00	30.079 
02:35	59.3	59.3	59.3	77	52.1	0	0	---	0.00	30.079 
02:40	59.3	59.3	59.3	77	52.1	0	0	---	0.00	30.079 
02:45	59.2	59.2	59.2	78	52.3	0	0	---	0.00	30.076 
02:50	59.0	59.0	59.0	78	52.1	0	0	---	0.00	30.076 
02:55	58.9	58.9	58.9	78	52.0	0	0	---	0.00	30.076 
03:00	58.9	58.9	58.9	79	52.4	0	0	---	0.00	30.066 
03:05	58.7	58.7	58.7	79	52.2	0	0	---	0.00	30.066 
03:10	58.7	58.7	58.7	79	52.2	0	0	---	0.00	30.066 
03:15	58.7	58.7	58.7	80	52.5	0	0	---	0.00	30.071 
03:20	58.6	58.6	58.6	80	52.4	0	0	---	0.00	30.071 
03:25	58.4	58.4	58.4	80	52.3	0	0	---	0.00	30.071 
03:30	58.3	58.3	58.3	81	52.5	0	0	---	0.00	30.076 
03:35	58.3	58.3	58.3	81	52.5	0	0	---	0.00	30.076 
03:40	58.1	58.1	58.1	81	52.3	0	0	---	0.00	30.076 
03:45	58.0	58.0	58.0	81	52.2	0	0	---	0.00	30.080 
03:50	58.0	58.0	58.0	82	52.5	0	0	---	0.00	30.080 
03:55	57.8	57.8	57.8	82	52.3	0	0	---	0.00	30.080 
04:00	57.6	57.6	57.6	82	52.1	0	0	---	0.00	30.080 
04:05	57.5	57.5	57.5	83	52.4	0	0	---	0.00	30.080 
04:10	57.5	57.5	57.5	83	52.4	0	0	---	0.00	30.080 
04:15	57.5	57.5	57.5	83	52.4	0	0	---	0.00	30.080 
04:20	57.3	57.3	57.3	83	52.2	0	0	---	0.00	30.080 
04:25	57.2	57.2	57.2	84	52.4	0	0	---	0.00	30.080 
04:30	57.2	57.2	57.2	84	52.4	0	0	---	0.00	30.089 
04:35	57.0	57.0	57.0	84	52.2	0	0	---	0.00	30.089 
04:40	57.0	57.0	57.0	84	52.2	0	0	---	0.00	30.089 
04:45	56.9	56.9	56.9	84	52.1	0	0	---	0.00	30.099 
04:50	56.9	56.9	56.9	85	52.4	0	0	---	0.00	30.099 
04:55	56.9	56.9	56.9	85	52.4	0	0	---	0.00	30.099 
05:00	56.7	56.7	56.7	85	52.2	0	0	---	0.00	30.097 
05:05	56.7	56.7	56.7	85	52.2	0	0	---	0.00	30.097 
05:10	56.6	56.6	56.6	85	52.1	0	0	---	0.00	30.097 
05:15	56.5	56.5	56.5	85	52.0	0	0	---	0.00	30.101 
05:20	56.5	56.5	56.5	85	52.0	0	0	---	0.00	30.101 
05:25	56.3	56.3	56.3	86	52.2	0	0	---	0.00	30.101 
05:30	56.2	56.2	56.2	86	52.1	0	0	---	0.00	30.099 
05:35	56.2	56.2	56.2	86	52.1	0	0	---	0.00	30.099 
05:40	56.0	56.0	56.0	86	51.9	0	0	---	0.00	30.099 
05:45	56.0	56.0	56.0	86	51.9	0	0	---	0.00	30.103 
05:50	55.9	55.9	55.9	87	52.1	0	0	---	0.00	30.103 
05:55	55.9	55.9	55.9	87	52.1	0	0	---	0.00	30.103 
06:00	55.9	55.9	55.9	87	52.1	0	0	---	0.00	30.106 
06:05	55.7	55.7	55.7	87	51.9	0	0	---	0.00	30.106 
06:10	55.7	55.7	55.7	87	51.9	0	0	---	0.00	30.106 
06:15	55.7	55.7	55.7	87	51.9	0	0	---	0.00	30.115 
06:20	55.7	55.7	55.7	88	52.2	0	0	---	0.00	30.115 
06:25	55.7	55.7	55.7	88	52.2	0	0	---	0.00	30.115 
06:30	55.7	55.7	55.7	88	52.2	0	0	---	0.00	30.119 
06:35	55.7	55.7	55.7	88	52.2	0	0	---	0.00	30.119 
06:40	55.9	55.9	55.9	88	52.4	0	0	---	0.00	30.119 
06:45	55.9	55.9	55.9	88	52.4	0	0	---	0.00	30.130 
06:50	56.0	56.0	56.0	88	52.5	0	0	---	0.00	30.130 
06:55	56.2	56.2	56.2	88	52.7	0	0	---	0.00	30.130 
07:00	56.3	56.3	56.3	88	52.8	0	0	---	0.00	30.132 
07:05	56.6	56.6	56.6	88	53.1	0	0	---	0.00	30.132 
07:10	56.9	56.9	56.9	88	53.4	0	0	---	0.00	30.132 
07:15	57.2	57.2	57.2	88	53.7	0	0	---	0.00	30.133 
07:20	57.6	57.6	57.6	89	54.4	0	0	---	0.00	30.133 
07:25	58.3	58.3	58.3	89	55.1	0	0	---	0.00	30.133 
07:30	58.9	58.9	58.9	88	55.3	0	0	---	0.00	30.147 
07:35	59.5	59.5	59.5	88	55.9	0	0	---	0.00	30.147 
07:40	60.4	60.4	60.4	85	55.9	0	0	---	0.00	30.147 
07:45	61.6	61.6	61.6	82	56.0	0	0	---	0.00	30.148 
07:50	63.1	63.1	63.1	77	55.8	0	0	---	0.00	30.148 
07:55	64.3	64.3	64.3	73	55.5	0	0	---	0.00	30.148 
08:00	65.5	65.5	65.5	70	55.4	0	0	---	0.00	30.153 
08:05	66.6	66.6	66.6	64	54.0	0	1	68	0.00	30.153 
08:10	67.8	67.8	67.8	60	53.4	0	0	---	0.00	30.153 
08:15	68.9	68.9	68.9	56	52.5	0	2	68	0.00	30.160 
08:20	69.8	69.8	69.8	53	51.9	0	1	68	0.00	30.160 
08:25	70.8	70.8	70.8	52	52.3	0	1	68	0.00	30.160 
08:30	71.5	71.5	71.5	51	52.4	0	2	68	0.00	30.170 
08:35	72.0	72.0	72.0	51	52.9	0	1	68	0.00	30.170 
08:40	72.3	72.3	72.3	52	53.7	0	1	68	0.00	30.170 
08:45	72.5	72.5	72.5	50	52.8	0	1	68	0.00	30.179 
08:50	72.8	72.8	72.8	50	53.1	0	1	68	0.00	30.179 
08:55	73.3	73.3	73.3	50	53.5	0	1	68	0.00	30.179 
09:00	73.9	73.9	73.9	48	53.0	0	3	68	0.00	30.185 
09:05	74.4	74.4	74.4	48	53.4	0	2	68	0.00	30.185 
09:10	74.6	74.6	74.6	49	54.2	0	3	68	0.00	30.185 
09:15	74.9	74.9	74.9	49	54.4	0	2	68	0.00	30.192 
09:20	75.3	75.3	77.7	49	54.8	0	2	68	0.00	30.192 
09:25	75.3	75.3	77.7	47	53.7	1	3	68	0.00	30.192 
09:30	75.3	75.3	77.7	47	53.7	1	3	68	0.00	30.190 
09:35	75.1	75.1	77.7	48	54.1	1	4	68	0.00	30.190 
09:40	74.9	74.9	74.9	47	53.3	1	3	68	0.00	30.190 
09:45	75.1	75.1	77.7	47	53.5	0	2	68	0.00	30.190 
09:50	75.4	75.4	77.8	48	54.3	0	2	68	0.00	30.190 
09:55	75.8	75.8	77.9	46	53.5	1	4	68	0.00	30.190 
10:00	76.1	76.1	78.0	43	52.0	1	4	68	0.00	30.200 
10:05	76.8	76.8	78.2	42	51.9	0	2	68	0.00	30.200 
10:10	77.6	77.6	78.5	39	50.7	1	3	68	0.00	30.200 
10:15	77.9	77.9	78.7	40	51.6	1	4	68	0.00	30.202 
10:20	78.3	78.3	78.8	39	51.3	1	3	68	0.00	30.202 
10:25	78.6	78.6	79.0	39	51.5	0	2	68	0.00	30.202 
10:30	79.0	79.0	79.3	40	52.6	0	3	68	0.00	30.203 
10:35	79.6	79.6	79.5	38	51.7	1	4	68	0.00	30.203 
10:40	79.8	79.8	79.7	39	52.6	1	4	68	0.00	30.203 
10:45	80.1	80.1	79.8	37	51.5	1	3	68	0.00	30.199 
10:50	80.5	80.5	80.0	37	51.8	1	4	68	0.00	30.199 
10:55	80.5	80.5	80.0	37	51.8	1	5	68	0.00	30.199 
11:00	80.3	80.3	80.0	38	52.4	2	5	90	0.00	30.196 
11:05	80.7	80.7	80.1	36	51.2	0	2	90	0.00	30.196 
11:10	81.2	81.2	80.3	35	50.9	1	4	90	0.00	30.196 
11:15	81.6	81.6	80.6	35	51.3	1	3	68	0.00	30.192 
11:20	82.2	82.2	81.1	35	51.8	1	5	68	0.00	30.192 
11:25	82.4	82.4	81.4	37	53.5	1	4	68	0.00	30.192 
11:30	82.6	82.6	81.3	34	51.4	1	4	68	0.00	30.190 
11:35	82.8	82.8	81.4	34	51.5	0	2	68	0.00	30.190 
11:40	83.0	83.0	81.6	34	51.7	2	5	68	0.00	30.190 
11:45	82.8	82.8	81.6	35	52.3	1	4	225	0.00	30.188 
11:50	83.4	83.4	82.1	35	52.8	0	3	180	0.00	30.188 
11:55	83.6	83.6	81.9	32	50.6	1	4	135	0.00	30.188 
12:00	83.4	83.4	82.1	35	52.8	2	5	90	0.00	30.192 
12:05	83.8	83.8	82.4	35	53.2	1	4	90	0.00	30.192 
12:10	84.3	84.3	82.7	34	52.8	0	3	90	0.00	30.192 
12:15	84.7	84.7	83.1	34	53.2	0	4	90	0.00	30.193 
12:20	85.3	85.3	83.5	33	52.9	1	3	90	0.00	30.193 
12:25	85.1	85.1	83.2	32	51.9	1	6	90	0.00	30.193 
12:30	84.9	84.9	83.3	34	53.4	1	4	45	0.00	30.193 
12:35	84.7	84.7	83.2	35	54.0	2	5	90	0.00	30.193 
12:40	84.7	84.7	82.8	32	51.5	1	5	90	0.00	30.193 
12:45	84.5	84.5	82.8	33	52.2	2	5	90	0.00	30.188 
12:50	84.7	84.7	83.0	33	52.4	1	4	68	0.00	30.188 
12:55	84.9	84.9	82.8	30	50.0	2	6	68	0.00	30.188 
13:00	85.1	85.1	82.9	30	50.1	1	3	90	0.00	30.188 
13:05	85.5	85.5	83.3	30	50.5	1	4	90	0.00	30.188 
13:10	85.7	85.7	83.5	30	50.7	1	4	90	0.00	30.188 
13:15	85.9	85.9	83.5	29	49.9	1	4	90	0.00	30.187 
13:20	85.9	85.9	83.4	28	49.0	2	5	90	0.00	30.187 
13:25	85.9	85.9	83.7	30	50.8	1	5	68	0.00	30.187 
13:30	86.1	86.1	83.6	28	49.1	2	7	90	0.00	30.188 
13:35	86.1	86.1	83.5	27	48.2	1	6	68	0.00	30.188 
13:40	86.3	86.3	84.0	30	51.2	2	4	68	0.00	30.188 
13:45	86.1	86.1	83.6	28	49.1	2	6	90	0.00	30.189 
13:50	86.3	86.3	84.2	31	52.1	0	3	90	0.00	30.189 
13:55	86.5	86.5	84.0	28	49.5	0	2	90	0.00	30.189 
14:00	87.0	87.0	84.4	28	49.9	1	4	90	0.00	30.190 
14:05	86.7	86.7	84.0	27	48.7	1	7	90	0.00	30.190 
14:10	87.0	87.0	84.4	28	49.9	1	4	90	0.00	30.190 
14:15	87.2	87.2	84.9	30	52.0	1	3	90	0.00	30.187 
14:20	87.2	87.2	84.5	27	49.1	1	3	68	0.00	30.187 
14:25	87.4	87.4	84.6	26	48.3	0	2	68	0.00	30.187 
14:30	87.4	87.4	84.8	28	50.3	2	4	68	0.00	30.186 
14:35	87.2	87.2	84.9	30	52.0	1	4	90	0.00	30.186 
14:40	86.5	86.5	84.0	28	49.5	3	6	90	0.00	30.186 
14:45	86.7	86.7	84.3	29	50.6	1	4	90	0.00	30.182 
14:50	87.4	87.4	84.8	28	50.3	1	3	90	0.00	30.182 
14:55	87.4	87.4	84.8	28	50.3	1	3	90	0.00	30.182 
15:00	87.4	87.4	84.8	28	50.3	1	4	90	0.00	30.179 
15:05	87.4	87.4	85.4	32	53.9	1	7	90	0.00	30.179 
15:10	87.2	87.2	84.6	28	50.1	1	4	90	0.00	30.179 
15:15	87.2	87.2	84.8	29	51.0	2	4	90	0.00	30.175 
15:20	87.4	87.4	84.7	27	49.3	2	5	90	0.00	30.175 
15:25	87.2	87.2	84.6	28	50.1	1	5	90	0.00	30.175 
15:30	87.4	87.4	84.8	28	50.3	2	6	90	0.00	30.175 
15:35	87.4	87.4	84.8	28	50.3	1	6	90	0.00	30.175 
15:40	87.6	87.6	85.0	28	50.4	1	4	68	0.00	30.175 
15:45	88.0	88.0	85.3	27	49.8	1	4	68	0.00	30.171 
15:50	88.0	88.0	85.6	29	51.7	1	3	68	0.00	30.171 
15:55	88.0	88.0	85.3	27	49.8	1	3	68	0.00	30.171 
16:00	87.8	87.8	85.2	28	50.6	2	5	90	0.00	30.171 
16:05	88.0	88.0	85.6	29	51.7	0	2	90	0.00	30.171 
16:10	88.4	88.4	85.8	28	51.1	1	4	90	0.00	30.171 
16:15	88.6	88.6	86.0	28	51.3	1	3	90	0.00	30.170 
16:20	88.2	88.2	85.6	28	50.9	2	5	68	0.00	30.170 
16:25	88.0	88.0	85.4	28	50.8	1	3	68	0.00	30.170 
16:30	88.2	88.2	85.6	28	50.9	1	3	68	0.00	30.173 
16:35	88.6	88.6	85.9	27	50.3	0	2	68	0.00	30.173 
16:40	88.0	88.0	85.4	28	50.8	1	5	68	0.00	30.173 
16:45	87.6	87.6	84.9	27	49.4	1	5	90	0.00	30.172 
16:50	87.6	87.6	85.0	28	50.4	1	5	90	0.00	30.172 
16:55	88.2	88.2	85.6	28	50.9	0	2	270	0.00	30.172 
17:00	88.6	88.6	86.0	28	51.3	0	3	270	0.00	30.172 
17:05	88.8	88.8	86.2	28	51.4	1	4	90	0.00	30.172 
17:10	88.6	88.6	86.0	28	51.3	1	4	90	0.00	30.172 
17:15	88.4	88.4	85.7	27	50.1	1	5	112	0.00	30.169 
17:20	88.4	88.4	86.0	29	52.1	0	1	112	0.00	30.169 
17:25	88.6	88.6	85.9	27	50.3	0	1	112	0.00	30.169 
17:30	88.4	88.4	85.8	28	51.1	0	1	112	0.00	30.163 
17:35	88.2	88.2	85.5	27	50.0	1	3	112	0.00	30.163 
17:40	88.4	88.4	85.8	28	51.1	0	4	112	0.00	30.163 
17:45	87.6	87.6	85.3	30	52.3	1	4	68	0.00	30.158 
17:50	87.2	87.2	84.8	29	51.0	0	1	68	0.00	30.158 
17:55	86.7	86.7	84.3	29	50.6	0	3	68	0.00	30.158 
18:00	86.5	86.5	84.1	29	50.4	0	1	68	0.00	30.157 
18:05	86.3	86.3	83.9	29	50.3	0	2	68	0.00	30.157 
18:10	86.3	86.3	84.0	30	51.2	0	2	68	0.00	30.157 
18:15	86.3	86.3	83.9	29	50.3	0	3	68	0.00	30.153 
18:20	86.3	86.3	84.0	30	51.2	0	1	68	0.00	30.153 
18:25	86.3	86.3	83.9	29	50.3	0	2	68	0.00	30.153 
18:30	85.9	85.9	83.7	30	50.8	0	2	68	0.00	30.150 
18:35	85.7	85.7	83.6	31	51.5	0	1	68	0.00	30.150 
18:40	85.7	85.7	83.6	31	51.5	0	2	68	0.00	30.150 
18:45	85.7	85.7	83.6	31	51.5	0	1	68	0.00	30.152 
18:50	85.5	85.5	83.6	32	52.2	0	2	68	0.00	30.152 
18:55	85.3	85.3	83.5	33	52.9	0	2	68	0.00	30.152 
19:00	85.1	85.1	83.5	34	53.5	0	3	68	0.00	30.156 
19:05	85.1	85.1	83.5	34	53.5	0	1	68	0.00	30.156 
19:10	84.9	84.9	83.4	35	54.2	0	1	68	0.00	30.156 
19:15	84.7	84.7	83.2	35	54.0	0	2	68	0.00	30.148 
19:20	84.5	84.5	83.0	35	53.8	0	2	68	0.00	30.148 
19:25	84.3	84.3	82.9	35	53.6	0	0	---	0.00	30.148 
19:30	84.0	84.0	82.6	35	53.4	0	1	68	0.00	30.150 
19:35	83.8	83.8	82.5	36	54.0	0	0	---	0.00	30.150 
19:40	83.6	83.6	82.5	37	54.5	0	0	---	0.00	30.150 
19:45	83.2	83.2	82.1	37	54.2	0	0	---	0.00	30.153 
19:50	83.0	83.0	82.2	39	55.5	0	0	---	0.00	30.153 
19:55	82.8	82.8	82.3	41	56.7	0	0	---	0.00	30.153 
20:00	82.6	82.6	82.2	42	57.2	0	0	---	0.00	30.154 
20:05	82.4	82.4	82.2	43	57.6	0	0	---	0.00	30.154 
20:10	82.2	82.2	82.0	43	57.4	0	0	---	0.00	30.154 
20:15	81.8	81.8	81.4	41	55.8	0	0	---	0.00	30.148 
20:20	81.6	81.6	81.3	42	56.3	0	0	---	0.00	30.148 
20:25	81.2	81.2	81.0	42	55.9	0	0	---	0.00	30.148 
20:30	81.1	81.1	81.3	45	57.7	0	0	---	0.00	30.148 
20:35	80.9	80.9	81.1	45	57.5	0	0	---	0.00	30.148 
20:40	80.7	80.7	80.9	45	57.4	0	0	---	0.00	30.148 
20:45	80.3	80.3	80.5	44	56.4	0	0	---	0.00	30.149 
20:50	79.9	79.9	80.3	45	56.6	0	0	---	0.00	30.149 
20:55	79.8	79.8	80.3	46	57.2	0	0	---	0.00	30.149 
21:00	79.4	79.4	80.1	48	58.0	0	0	---	0.00	30.151 
21:05	79.2	79.2	80.0	48	57.8	0	0	---	0.00	30.151 
21:10	78.8	78.8	79.7	49	58.0	0	0	---	0.00	30.151 
21:15	78.5	78.5	79.5	49	57.7	0	0	---	0.00	30.152 
21:20	78.1	78.1	79.4	51	58.5	0	0	---	0.00	30.152 
21:25	77.7	77.7	79.1	51	58.1	0	0	---	0.00	30.152 
21:30	77.4	77.4	78.9	51	57.8	0	0	---	0.00	30.157 
21:35	77.0	77.0	78.6	51	57.5	0	0	---	0.00	30.157 
21:40	76.7	76.7	78.4	51	57.2	0	0	---	0.00	30.157 
21:45	76.3	76.3	78.2	52	57.4	0	0	---	0.00	30.161 
21:50	76.0	76.0	78.1	53	57.6	0	0	---	0.00	30.161 
21:55	75.6	75.6	77.9	53	57.2	0	0	---	0.00	30.161 
22:00	75.3	75.3	77.7	54	57.5	0	0	---	0.00	30.170 
22:05	74.9	74.9	74.9	56	58.1	0	0	---	0.00	30.170 
22:10	74.7	74.7	74.7	57	58.4	0	0	---	0.00	30.170 
22:15	74.4	74.4	74.4	58	58.6	0	0	---	0.00	30.170 
22:20	74.2	74.2	74.2	59	58.9	0	0	---	0.00	30.170 
22:25	73.9	73.9	73.9	61	59.6	0	0	---	0.00	30.170 
22:30	73.7	73.7	73.7	61	59.4	0	0	---	0.00	30.179 
22:35	73.5	73.5	73.5	61	59.2	0	0	---	0.00	30.179 
22:40	73.2	73.2	73.2	62	59.4	0	0	---	0.00	30.179 
22:45	73.0	73.0	73.0	62	59.2	0	0	---	0.00	30.182 
22:50	72.7	72.7	72.7	63	59.4	0	0	---	0.00	30.182 
22:55	72.5	72.5	72.5	63	59.2	0	0	---	0.00	30.182 
23:00	72.1	72.1	72.1	64	59.2	0	0	---	0.00	30.185 
23:05	72.0	72.0	72.0	65	59.6	0	0	---	0.00	30.185 
23:10	71.8	71.8	71.8	65	59.4	0	0	---	0.00	30.185 
23:15	71.5	71.5	71.5	66	59.5	0	0	---	0.00	30.190 
23:20	71.3	71.3	71.3	66	59.3	0	0	---	0.00	30.190 
23:25	71.1	71.1	71.1	66	59.2	0	0	---	0.00	30.190 
23:30	70.9	70.9	70.9	66	59.0	0	0	---	0.00	30.188 
23:35	70.8	70.8	70.8	67	59.3	0	0	---	0.00	30.188 
23:40	70.6	70.6	70.6	70	60.3	0	0	---	0.00	30.188 
23:45	70.4	70.4	70.4	72	60.9	0	0	---	0.00	30.192 
23:50	70.4	70.4	70.4	74	61.7	0	0	---	0.00	30.192 
23:55	70.3	70.3	70.3	74	61.6	0	0	---	0.00	30.192 

CoCoRaHS
IN-AL-39
A2 Web Hosting
Creative Commons License
GoDaddy
search engine by freefind advanced

loaded 2018-11-19 19:05:27 • last modified 2010-11-18 10:43:29
Privacy PolicyDisclaimer
• wx.awcolley.com is powered by PmWiki v.2002016 •
• all content (unless otherwise noted) © 2018 A W Colley